createdAt,value
2019-04-06T00:01:30.911Z,10.43
2019-04-06T00:04:02.866Z,12.60
2019-04-06T00:06:35.131Z,9.50
2019-04-06T00:09:07.423Z,9.40
2019-04-06T00:11:39.372Z,8.83
2019-04-06T00:14:11.832Z,9.47
2019-04-06T00:16:43.585Z,8.37
2019-04-06T00:19:15.864Z,9.67
2019-04-06T00:21:47.981Z,10.23
2019-04-06T00:24:19.950Z,11.67
2019-04-06T00:26:51.463Z,11.83
2019-04-06T00:29:23.288Z,9.23
2019-04-06T00:31:56.635Z,10.10
2019-04-06T00:34:28.284Z,11.83
2019-04-06T00:36:59.997Z,9.20
2019-04-06T00:39:32.070Z,11.93
2019-04-06T00:42:03.723Z,11.93
2019-04-06T00:44:35.647Z,9.20
2019-04-06T00:47:07.394Z,11.33
2019-04-06T00:49:39.349Z,10.70
2019-04-06T00:52:11.310Z,12.87
2019-04-06T00:54:43.300Z,11.13
2019-04-06T00:57:15.632Z,9.10
2019-04-06T00:59:47.691Z,9.97
2019-04-06T01:02:19.591Z,8.63
2019-04-06T01:04:51.573Z,13.07
2019-04-06T01:07:23.541Z,10.60
2019-04-06T01:09:55.676Z,11.50
2019-04-06T01:12:27.385Z,11.67
2019-04-06T01:14:59.473Z,10.47
2019-04-06T01:17:31.833Z,12.63
2019-04-06T01:20:03.911Z,9.83
2019-04-06T01:22:35.939Z,12.17
2019-04-06T01:25:07.836Z,11.13
2019-04-06T01:27:40.005Z,10.30
2019-04-06T01:30:11.929Z,10.10
2019-04-06T01:32:44.122Z,9.13
2019-04-06T01:35:16.337Z,12.37
2019-04-06T01:37:48.407Z,10.10
2019-04-06T01:40:20.497Z,8.80
2019-04-06T01:42:52.070Z,12.00
2019-04-06T01:45:23.889Z,14.50
2019-04-06T01:47:55.779Z,10.40
2019-04-06T01:50:27.837Z,12.03
2019-04-06T01:52:59.862Z,12.43
2019-04-06T01:55:31.854Z,11.20
2019-04-06T01:58:03.612Z,10.10
2019-04-06T02:00:35.428Z,12.30
2019-04-06T02:03:07.506Z,11.60
2019-04-06T02:05:39.242Z,8.50
2019-04-06T02:08:11.127Z,11.97
2019-04-06T02:10:43.077Z,11.97
2019-04-06T02:13:14.784Z,11.20
2019-04-06T02:15:46.711Z,12.93
2019-04-06T02:18:18.779Z,13.03
2019-04-06T02:20:50.409Z,11.83
2019-04-06T02:23:22.434Z,10.47
2019-04-06T02:25:53.955Z,9.57
2019-04-06T02:28:25.673Z,11.57
2019-04-06T02:31:04.958Z,11.13
2019-04-06T02:33:49.401Z,8.63
2019-04-06T02:36:32.216Z,9.73
2019-04-06T02:39:16.273Z,9.77
2019-04-06T02:41:49.406Z,10.60
2019-04-06T02:44:21.515Z,10.63
2019-04-06T02:46:53.473Z,10.97
2019-04-06T02:49:25.555Z,8.67
2019-04-06T02:51:57.583Z,8.50
2019-04-06T02:54:29.408Z,7.70
2019-04-06T02:57:01.764Z,9.40
2019-04-06T02:59:34.077Z,7.57
2019-04-06T03:02:06.189Z,9.70
2019-04-06T03:04:38.271Z,8.87
2019-04-06T03:07:10.310Z,9.93
2019-04-06T03:09:42.097Z,8.10
2019-04-06T03:12:14.170Z,8.87
2019-04-06T03:14:46.481Z,10.60
2019-04-06T03:17:18.596Z,8.17
2019-04-06T03:19:51.047Z,8.30
2019-04-06T03:22:22.991Z,9.00
2019-04-06T03:24:54.847Z,9.40
2019-04-06T03:27:26.815Z,9.07
2019-04-06T03:29:59.375Z,11.10
2019-04-06T03:32:31.761Z,8.73
2019-04-06T03:35:03.729Z,9.03
2019-04-06T03:37:35.756Z,7.80
2019-04-06T03:40:07.795Z,9.37
2019-04-06T03:42:40.012Z,9.87
2019-04-06T03:45:11.944Z,9.37
2019-04-06T03:47:44.062Z,9.17
2019-04-06T03:50:15.851Z,7.30
2019-04-06T03:52:47.762Z,9.93
2019-04-06T03:55:19.887Z,11.10
2019-04-06T03:57:51.893Z,9.23
2019-04-06T04:00:23.715Z,9.23
2019-04-06T04:02:55.369Z,7.57
2019-04-06T04:05:27.278Z,9.23
2019-04-06T04:07:59.174Z,7.63
2019-04-06T04:10:36.309Z,10.53
2019-04-06T04:13:07.930Z,6.93
2019-04-06T04:15:39.869Z,7.77
2019-04-06T04:18:11.801Z,8.40
2019-04-06T04:20:44.287Z,10.60
2019-04-06T04:23:16.196Z,7.13
2019-04-06T04:25:48.132Z,9.43
2019-04-06T04:28:20.071Z,10.67
2019-04-06T04:30:52.380Z,7.53
2019-04-06T04:33:24.300Z,9.93
2019-04-06T04:35:56.343Z,7.27
2019-04-06T04:38:28.099Z,8.47
2019-04-06T04:41:00.162Z,8.60
2019-04-06T04:43:32.430Z,8.63
2019-04-06T04:46:04.305Z,8.90
2019-04-06T04:48:36.578Z,7.00
2019-04-06T04:51:08.612Z,8.43
2019-04-06T04:53:40.531Z,9.90
2019-04-06T04:56:12.266Z,8.13
2019-04-06T04:58:46.145Z,9.40
2019-04-06T05:01:17.854Z,8.50
2019-04-06T05:03:50.565Z,9.27
2019-04-06T05:06:23.157Z,8.97
2019-04-06T05:08:58.708Z,8.57
2019-04-06T05:11:30.779Z,9.60
2019-04-06T05:14:38.758Z,9.93
2019-04-06T05:17:10.567Z,11.40
2019-04-06T05:19:42.578Z,8.00
2019-04-06T05:22:14.277Z,8.10
2019-04-06T05:24:46.761Z,9.17
2019-04-06T05:27:18.514Z,9.17
2019-04-06T05:29:50.173Z,9.70
2019-04-06T05:32:22.345Z,9.77
2019-04-06T05:34:54.022Z,11.83
2019-04-06T05:37:26.384Z,9.30
2019-04-06T05:39:58.978Z,11.90
2019-04-06T05:42:31.476Z,11.77
2019-04-06T05:45:03.215Z,11.17
2019-04-06T05:47:34.908Z,8.20
2019-04-06T05:50:07.474Z,8.27
2019-04-06T05:52:39.347Z,8.90
2019-04-06T05:55:11.232Z,9.73
2019-04-06T05:57:43.565Z,8.13
2019-04-06T06:00:15.529Z,8.40
2019-04-06T06:02:49.681Z,10.03
2019-04-06T06:05:21.621Z,8.37
2019-04-06T06:07:53.998Z,9.13
2019-04-06T06:10:25.754Z,10.53
2019-04-06T06:12:58.162Z,8.87
2019-04-06T06:15:33.100Z,10.67
2019-04-06T06:18:05.153Z,10.77
2019-04-06T06:20:37.054Z,10.40
2019-04-06T06:23:09.171Z,10.70
2019-04-06T06:25:41.192Z,12.47
2019-04-06T06:28:14.979Z,9.97
2019-04-06T06:30:46.554Z,10.60
2019-04-06T06:33:18.274Z,12.37
2019-04-06T06:35:50.281Z,9.87
2019-04-06T06:38:22.604Z,13.93
2019-04-06T06:40:54.218Z,8.70
2019-04-06T06:43:25.852Z,8.10
2019-04-06T06:45:57.973Z,11.73
2019-04-06T06:48:29.948Z,12.70
2019-04-06T06:51:01.860Z,12.97
2019-04-06T06:53:33.601Z,9.67
2019-04-06T06:56:05.645Z,11.43
2019-04-06T06:58:37.442Z,8.33
2019-04-06T07:01:09.479Z,10.77
2019-04-06T07:03:41.400Z,8.97
2019-04-06T07:06:13.303Z,7.40
2019-04-06T07:08:45.475Z,10.20
2019-04-06T07:11:17.030Z,9.47
2019-04-06T07:13:48.897Z,10.83
2019-04-06T07:16:20.698Z,10.77
2019-04-06T07:18:52.808Z,8.90
2019-04-06T07:21:24.618Z,11.83
2019-04-06T07:23:57.494Z,11.53
2019-04-06T07:26:29.500Z,10.63
2019-04-06T07:29:01.561Z,12.17
2019-04-06T07:31:33.337Z,12.87
2019-04-06T07:34:05.389Z,10.23
2019-04-06T07:36:37.079Z,14.90
2019-04-06T07:39:08.892Z,8.40
2019-04-06T07:41:42.022Z,10.20
2019-04-06T07:44:14.931Z,11.70
2019-04-06T07:46:47.017Z,10.93
2019-04-06T07:49:19.426Z,15.10
2019-04-06T07:51:51.269Z,13.23
2019-04-06T07:54:23.421Z,15.00
2019-04-06T07:57:03.891Z,22.43
2019-04-06T07:59:36.168Z,19.07
2019-04-06T08:02:08.000Z,17.43
2019-04-06T08:04:39.887Z,17.33
2019-04-06T08:07:13.385Z,16.40
2019-04-06T08:09:45.900Z,21.60
2019-04-06T08:12:17.756Z,14.30
2019-04-06T08:14:52.032Z,22.40
2019-04-06T08:17:24.262Z,17.33
2019-04-06T08:19:56.587Z,16.07
2019-04-06T08:22:29.072Z,15.80
2019-04-06T08:25:01.593Z,13.93
2019-04-06T08:27:33.583Z,18.80
2019-04-06T08:30:09.018Z,14.23
2019-04-06T08:32:41.644Z,13.67
2019-04-06T08:35:24.420Z,14.60
2019-04-06T08:37:47.315Z,13.73
2019-04-06T08:40:19.175Z,10.33
2019-04-06T08:42:51.110Z,13.93
2019-04-06T08:45:23.042Z,11.23
2019-04-06T08:47:54.882Z,11.93
2019-04-06T08:50:26.918Z,12.97
2019-04-06T08:52:59.051Z,9.23
2019-04-06T08:55:31.212Z,10.07
2019-04-06T08:58:03.133Z,9.07
2019-04-06T09:00:34.977Z,10.07
2019-04-06T09:03:07.003Z,9.93
2019-04-06T09:05:39.057Z,10.83
2019-04-06T09:08:11.169Z,9.80
2019-04-06T09:10:43.550Z,10.97
2019-04-06T09:13:16.825Z,8.47
2019-04-06T09:15:48.559Z,8.23
2019-04-06T09:18:21.037Z,9.07
2019-04-06T09:20:53.241Z,8.63
2019-04-06T09:23:25.154Z,6.90
2019-04-06T09:25:57.197Z,10.60
2019-04-06T09:28:29.225Z,7.80
2019-04-06T09:31:01.739Z,6.30
2019-04-06T09:33:36.025Z,7.80
2019-04-06T09:36:07.983Z,7.30
2019-04-06T09:38:39.946Z,7.13
2019-04-06T09:41:11.793Z,7.23
2019-04-06T09:43:43.900Z,8.43
2019-04-06T09:46:18.189Z,6.33
2019-04-06T09:48:57.962Z,6.73
2019-04-06T09:51:31.501Z,5.80
2019-04-06T09:54:16.978Z,7.73
2019-04-06T09:57:06.356Z,6.17
2019-04-06T09:59:48.559Z,6.47
2019-04-06T10:02:24.715Z,8.67
2019-04-06T10:05:12.934Z,5.77
2019-04-06T10:07:49.227Z,7.73
2019-04-06T10:10:31.644Z,5.80
2019-04-06T10:13:11.024Z,6.47
2019-04-06T10:15:47.129Z,11.87
2019-04-06T10:18:29.240Z,10.30
2019-04-06T10:21:02.994Z,11.93
2019-04-06T10:23:36.951Z,11.10
2019-04-06T10:26:26.651Z,12.10
2019-04-06T10:29:16.307Z,10.70
2019-04-06T10:32:05.792Z,8.30
2019-04-06T10:34:45.252Z,8.27
2019-04-06T10:37:18.980Z,7.80
2019-04-06T10:40:09.118Z,12.53
2019-04-06T10:42:43.093Z,7.93
2019-04-06T10:45:28.720Z,10.53
2019-04-06T10:48:08.094Z,9.77
2019-04-06T10:50:44.718Z,9.80
2019-04-06T10:53:36.251Z,8.70
2019-04-06T10:56:10.175Z,8.93
2019-04-06T10:58:58.190Z,7.97
2019-04-06T11:01:41.008Z,7.17
2019-04-06T11:04:17.598Z,7.47
2019-04-06T11:07:07.020Z,10.17
2019-04-06T11:09:40.227Z,6.53
2019-04-06T11:12:22.311Z,9.50
2019-04-06T11:14:58.494Z,5.80
2019-04-06T11:17:31.841Z,6.43
2019-04-06T11:20:07.185Z,9.60
2019-04-06T11:22:55.650Z,10.17
2019-04-06T11:25:41.371Z,16.77
2019-04-06T11:28:14.521Z,16.40
2019-04-06T11:30:59.514Z,13.43
2019-04-06T11:33:32.870Z,21.27
2019-04-06T11:36:12.250Z,24.53
2019-04-06T11:38:51.817Z,14.40
2019-04-06T11:41:33.726Z,23.40
2019-04-06T11:44:13.088Z,15.97
2019-04-06T11:47:02.554Z,14.17
2019-04-06T11:49:44.819Z,19.80
2019-04-06T11:52:37.133Z,19.77
2019-04-06T11:55:10.756Z,20.20
2019-04-06T11:57:59.823Z,17.20
2019-04-06T12:00:49.446Z,14.67
2019-04-06T12:03:25.204Z,22.00
2019-04-06T12:06:04.725Z,16.07
2019-04-06T12:08:38.364Z,17.93
2019-04-06T12:11:11.882Z,17.37
2019-04-06T12:13:45.460Z,14.43
2019-04-06T12:16:27.847Z,13.90
2019-04-06T12:19:01.018Z,14.73
2019-04-06T12:21:34.648Z,13.53
2019-04-06T12:24:16.419Z,11.60
2019-04-06T12:27:08.701Z,12.80
2019-04-06T12:30:00.201Z,14.60
2019-04-06T12:32:34.600Z,10.87
2019-04-06T12:35:20.652Z,18.70
2019-04-06T12:37:57.115Z,11.40
2019-04-06T12:40:33.398Z,12.23
2019-04-06T12:43:22.575Z,15.00
2019-04-06T12:46:12.733Z,12.67
2019-04-06T12:48:52.738Z,10.43
2019-04-06T12:51:26.389Z,12.00
2019-04-06T12:54:17.990Z,9.87
2019-04-06T12:59:25.791Z,8.58
2019-04-06T13:02:15.266Z,9.53
2019-04-06T13:04:57.624Z,9.70
2019-04-06T13:07:37.256Z,9.13
2019-04-06T13:10:23.329Z,11.63
2019-04-06T13:12:59.630Z,13.57
2019-04-06T13:15:38.683Z,12.97
2019-04-06T13:18:11.870Z,9.67
2019-04-06T13:21:03.822Z,11.63
2019-04-06T13:23:39.965Z,10.77
2019-04-06T13:26:28.614Z,9.97
2019-04-06T13:29:19.754Z,11.47
2019-04-06T13:34:40.633Z,9.10
2019-04-06T13:37:17.023Z,10.73
2019-04-06T13:39:50.914Z,10.27
2019-04-06T13:42:26.709Z,9.60
2019-04-06T13:45:00.167Z,11.67
2019-04-06T13:47:48.900Z,7.97
2019-04-06T13:50:24.898Z,9.13
2019-04-06T13:53:00.822Z,10.90
2019-04-06T13:55:33.490Z,8.07
2019-04-06T13:58:06.952Z,9.93
2019-04-06T14:00:57.351Z,13.83
2019-04-06T14:03:46.993Z,7.03
2019-04-06T14:06:20.536Z,9.63
2019-04-06T14:08:59.789Z,8.63
2019-04-06T14:11:45.502Z,10.93
2019-04-06T14:14:21.813Z,9.17
2019-04-06T14:16:58.024Z,8.97
2019-04-06T14:19:37.149Z,9.73
2019-04-06T14:22:25.863Z,6.17
2019-04-06T14:25:05.116Z,8.30
2019-04-06T14:27:41.262Z,8.30
2019-04-06T14:30:26.280Z,7.73
2019-04-06T14:33:08.476Z,8.90
2019-04-06T14:35:57.068Z,7.77
2019-04-06T14:38:39.880Z,8.07
2019-04-06T14:41:28.068Z,9.30
2019-04-06T14:44:07.565Z,8.20
2019-04-06T14:46:49.751Z,8.87
2019-04-06T14:49:30.727Z,7.63
2019-04-06T14:52:01.032Z,8.57
2019-04-06T14:54:34.599Z,11.17
2019-04-06T14:57:10.793Z,6.93
2019-04-06T14:59:44.721Z,8.57
2019-04-06T15:02:18.356Z,9.73
2019-04-06T15:05:03.881Z,9.73
2019-04-06T15:07:39.818Z,9.27
2019-04-06T15:10:32.249Z,8.00
2019-04-06T15:13:21.953Z,9.23
2019-04-06T15:15:58.734Z,8.00
2019-04-06T15:18:32.497Z,9.73
2019-04-06T15:21:06.387Z,8.30
2019-04-06T15:23:39.941Z,9.03
2019-04-06T15:26:22.837Z,10.67
2019-04-06T15:29:05.363Z,9.10
2019-04-06T15:31:54.568Z,10.13
2019-04-06T15:34:33.820Z,9.27
2019-04-06T15:37:07.774Z,8.73
2019-04-06T15:39:52.929Z,7.87
2019-04-06T15:42:38.216Z,9.23
2019-04-06T15:45:20.549Z,10.67
2019-04-06T15:48:02.794Z,8.70
2019-04-06T15:50:37.029Z,7.27
2019-04-06T15:53:19.448Z,8.23
2019-04-06T15:55:59.408Z,7.67
2019-04-06T15:58:40.962Z,8.10
2019-04-06T16:03:47.517Z,7.17
2019-04-06T16:06:28.491Z,9.60
2019-04-06T16:09:17.814Z,8.95
2019-04-06T16:12:07.263Z,6.90
2019-04-06T16:14:48.419Z,8.30
2019-04-06T16:17:23.929Z,7.78
2019-04-06T16:20:12.834Z,9.70
2019-04-06T16:22:52.435Z,7.40
2019-04-06T16:25:26.288Z,6.60
2019-04-06T16:28:11.629Z,8.63
2019-04-06T16:30:51.566Z,8.03
2019-04-06T16:33:25.650Z,8.75
2019-04-06T16:36:04.741Z,8.23
2019-04-06T16:38:43.477Z,7.33
2019-04-06T16:41:17.510Z,8.37
2019-04-06T16:43:51.350Z,8.10
2019-04-06T16:46:27.884Z,6.73
2019-04-06T16:49:04.021Z,9.57
2019-04-06T16:51:46.224Z,7.97
2019-04-06T16:54:19.883Z,8.53
2019-04-06T16:56:53.750Z,8.53
2019-04-06T16:59:30.155Z,9.27
2019-04-06T17:02:04.214Z,8.90
2019-04-06T17:04:37.596Z,9.60
2019-04-06T17:10:15.979Z,8.23
2019-04-06T17:12:52.934Z,6.87
2019-04-06T17:15:32.863Z,6.97
2019-04-06T17:18:23.628Z,7.03
2019-04-06T17:20:57.114Z,9.67
2019-04-06T17:23:30.694Z,7.30
2019-04-06T17:26:09.627Z,7.00
2019-04-06T17:28:43.485Z,8.50
2019-04-06T17:31:17.267Z,8.60
2019-04-06T17:33:56.291Z,8.37
2019-04-06T17:36:29.958Z,7.60
2019-04-06T17:39:03.830Z,9.07
2019-04-06T17:41:53.486Z,8.07
2019-04-06T17:44:41.859Z,10.13
2019-04-06T17:47:30.731Z,7.60
2019-04-06T17:50:20.286Z,10.33
2019-04-06T17:52:56.613Z,9.57
2019-04-06T17:55:46.880Z,10.07
2019-04-06T17:58:25.887Z,9.77
2019-04-06T18:01:14.422Z,9.40
2019-04-06T18:03:59.693Z,9.10
2019-04-06T18:06:32.413Z,7.23
2019-04-06T18:09:23.416Z,9.53
2019-04-06T18:12:12.872Z,9.78
2019-04-06T18:14:45.365Z,10.17
2019-04-06T18:17:17.237Z,8.73
2019-04-06T18:19:49.592Z,7.63
2019-04-06T18:22:24.671Z,7.07
2019-04-06T18:24:56.968Z,8.67
2019-04-06T18:27:28.806Z,7.53
2019-04-06T18:30:02.464Z,7.70
2019-04-06T18:32:36.945Z,10.10
2019-04-06T18:35:12.407Z,7.70
2019-04-06T18:37:53.450Z,9.37
2019-04-06T18:40:27.107Z,9.33
2019-04-06T18:43:04.143Z,6.63
2019-04-06T18:45:35.652Z,7.50
2019-04-06T18:48:09.065Z,8.43
2019-04-06T18:50:46.644Z,9.37
2019-04-06T18:53:22.005Z,10.93
2019-04-06T18:55:55.332Z,8.50
2019-04-06T18:58:30.602Z,8.40
2019-04-06T19:01:13.376Z,13.47
2019-04-06T19:03:46.343Z,11.87
2019-04-06T19:06:20.238Z,12.40
2019-04-06T19:08:52.491Z,16.67
2019-04-06T19:11:24.365Z,28.03
2019-04-06T19:13:56.620Z,22.03
2019-04-06T19:16:29.052Z,19.47
2019-04-06T19:19:26.069Z,20.83
2019-04-06T19:21:54.657Z,18.93
2019-04-06T19:24:26.350Z,17.53
2019-04-06T19:26:58.220Z,14.00
2019-04-06T19:29:32.931Z,17.50
2019-04-06T19:32:06.638Z,13.20
2019-04-06T19:34:38.712Z,12.47
2019-04-06T19:37:12.479Z,14.93
2019-04-06T19:39:44.981Z,15.27
2019-04-06T19:42:18.198Z,14.50
2019-04-06T19:45:00.655Z,9.80
2019-04-06T19:47:35.893Z,13.10
2019-04-06T19:50:10.981Z,10.33
2019-04-06T19:52:44.602Z,14.03
2019-04-06T19:55:37.092Z,14.97
2019-04-06T19:58:10.400Z,17.07
2019-04-06T20:00:42.638Z,10.87
2019-04-06T20:03:14.436Z,13.83
2019-04-06T20:05:47.381Z,11.60
2019-04-06T20:08:23.900Z,10.33
2019-04-06T20:10:56.121Z,12.47
2019-04-06T20:13:29.398Z,8.80
2019-04-06T20:16:02.046Z,10.63
2019-04-06T20:18:35.722Z,15.77
2019-04-06T20:21:08.680Z,11.20
2019-04-06T20:23:41.313Z,13.83
2019-04-06T20:26:13.187Z,12.03
2019-04-06T20:28:45.641Z,14.37
2019-04-06T20:31:36.121Z,12.70
2019-04-06T20:34:09.053Z,13.13
2019-04-06T20:36:47.288Z,15.00
2019-04-06T20:39:18.848Z,13.03
2019-04-06T20:41:50.847Z,13.20
2019-04-06T20:44:23.318Z,14.80
2019-04-06T20:46:56.349Z,11.93
2019-04-06T20:49:28.827Z,13.27
2019-04-06T20:52:00.893Z,12.30
2019-04-06T20:54:32.917Z,10.57
2019-04-06T20:57:05.403Z,11.77
2019-04-06T20:59:39.457Z,13.07
2019-04-06T21:02:11.175Z,13.93
2019-04-06T21:04:43.472Z,11.20
2019-04-06T21:07:16.018Z,15.93
2019-04-06T21:09:48.424Z,14.20
2019-04-06T21:12:20.955Z,12.17
2019-04-06T21:14:54.221Z,19.60
2019-04-06T21:17:27.726Z,16.27
2019-04-06T21:19:59.895Z,15.57
2019-04-06T21:22:32.914Z,19.37
2019-04-06T21:25:05.877Z,18.47
2019-04-06T21:27:38.071Z,18.83
2019-04-06T21:30:12.226Z,19.97
2019-04-06T21:32:48.002Z,21.13
2019-04-06T21:35:26.939Z,19.73
2019-04-06T21:37:58.780Z,19.83
2019-04-06T21:40:31.012Z,20.03
2019-04-06T21:43:03.130Z,21.03
2019-04-06T21:45:35.694Z,19.87
2019-04-06T21:48:08.161Z,19.53
2019-04-06T21:50:43.658Z,23.90
2019-04-06T21:53:18.598Z,18.63
2019-04-06T21:56:00.907Z,21.23
2019-04-06T21:58:28.761Z,23.43
2019-04-06T22:01:01.552Z,17.80
2019-04-06T22:03:36.477Z,20.60
2019-04-06T22:06:09.111Z,18.67
2019-04-06T22:08:43.738Z,17.63
2019-04-06T22:11:15.688Z,21.90
2019-04-06T22:13:47.751Z,18.37
2019-04-06T22:16:19.536Z,18.43
2019-04-06T22:18:52.053Z,19.50
2019-04-06T22:21:25.688Z,18.43
2019-04-06T22:23:57.885Z,18.47
2019-04-06T22:26:30.222Z,18.23
2019-04-06T22:29:02.680Z,21.10
2019-04-06T22:31:34.877Z,18.50
2019-04-06T22:34:07.022Z,18.17
2019-04-06T22:36:46.760Z,18.27
2019-04-06T22:39:19.129Z,18.77
2019-04-06T22:41:51.039Z,19.67
2019-04-06T22:44:23.110Z,19.53
2019-04-06T22:46:55.080Z,17.33
2019-04-06T22:49:27.253Z,21.67
2019-04-06T22:51:59.448Z,18.83
2019-04-06T22:54:41.859Z,19.40
2019-04-06T22:57:14.770Z,20.63
2019-04-06T22:59:47.075Z,19.70
2019-04-06T23:02:19.429Z,21.40
2019-04-06T23:04:52.769Z,19.83
2019-04-06T23:07:26.253Z,23.30
2019-04-06T23:09:58.092Z,19.47
2019-04-06T23:12:30.412Z,20.93
2019-04-06T23:15:02.298Z,19.73
2019-04-06T23:17:39.929Z,19.37
2019-04-06T23:20:11.887Z,20.27
2019-04-06T23:22:44.614Z,23.23
2019-04-06T23:25:16.775Z,20.73
2019-04-06T23:27:48.712Z,26.03
2019-04-06T23:30:20.740Z,18.60
2019-04-06T23:32:52.343Z,19.67
2019-04-06T23:35:24.303Z,18.27
2019-04-06T23:37:56.231Z,20.23
2019-04-06T23:40:28.316Z,18.30
2019-04-06T23:43:00.186Z,16.23
2019-04-06T23:45:31.862Z,18.40
2019-04-06T23:48:04.383Z,15.03
2019-04-06T23:50:36.944Z,20.53
2019-04-06T23:53:09.099Z,16.87
2019-04-06T23:55:41.124Z,18.27
2019-04-06T23:58:13.179Z,16.23
